sensor_id;sensor_type;location;lat;lon;timestamp;pressure;altitude;pressure_sealevel;temperature;humidity
64388;BME280;50709;52.648;4.764;2023-04-27T00:02:06;102224.06;;;10.67;63.19
64388;BME280;50709;52.648;4.764;2023-04-27T00:04:32;102213.59;;;10.66;62.86
64388;BME280;50709;52.648;4.764;2023-04-27T00:06:57;102165.19;;;10.43;62.10
64388;BME280;50709;52.648;4.764;2023-04-27T00:09:22;102226.47;;;10.58;62.32
64388;BME280;50709;52.648;4.764;2023-04-27T00:11:48;102216.25;;;10.69;63.16
64388;BME280;50709;52.648;4.764;2023-04-27T00:14:13;102222.72;;;10.83;63.01
64388;BME280;50709;52.648;4.764;2023-04-27T00:16:38;102214.03;;;10.84;62.05
64388;BME280;50709;52.648;4.764;2023-04-27T00:19:04;102222.69;;;10.82;62.44
64388;BME280;50709;52.648;4.764;2023-04-27T00:21:29;102219.91;;;10.75;62.85
64388;BME280;50709;52.648;4.764;2023-04-27T00:23:55;102222.00;;;10.90;62.81
64388;BME280;50709;52.648;4.764;2023-04-27T00:26:21;102214.91;;;10.85;61.96
64388;BME280;50709;52.648;4.764;2023-04-27T00:28:46;102211.41;;;10.84;62.04
64388;BME280;50709;52.648;4.764;2023-04-27T00:31:12;102220.84;;;10.77;61.67
64388;BME280;50709;52.648;4.764;2023-04-27T00:33:37;102217.41;;;10.80;62.72
64388;BME280;50709;52.648;4.764;2023-04-27T00:36:03;102165.09;;;10.40;62.93
64388;BME280;50709;52.648;4.764;2023-04-27T00:38:29;102226.16;;;10.82;62.84
64388;BME280;50709;52.648;4.764;2023-04-27T00:41:04;102200.94;;;10.83;62.57
64388;BME280;50709;52.648;4.764;2023-04-27T00:43:30;102214.56;;;10.69;62.06
64388;BME280;50709;52.648;4.764;2023-04-27T00:45:57;102219.03;;;10.75;61.94
64388;BME280;50709;52.648;4.764;2023-04-27T00:48:23;102218.00;;;10.68;62.77
64388;BME280;50709;52.648;4.764;2023-04-27T00:50:48;102220.63;;;10.68;62.32
64388;BME280;50709;52.648;4.764;2023-04-27T00:53:14;102216.06;;;10.59;61.99
64388;BME280;50709;52.648;4.764;2023-04-27T00:55:39;102215.66;;;10.42;63.05
64388;BME280;50709;52.648;4.764;2023-04-27T00:58:05;102215.31;;;10.30;63.10
64388;BME280;50709;52.648;4.764;2023-04-27T01:00:30;102212.94;;;10.38;63.43
64388;BME280;50709;52.648;4.764;2023-04-27T01:02:56;102215.56;;;10.38;62.73
64388;BME280;50709;52.648;4.764;2023-04-27T01:05:23;102222.47;;;10.37;63.08
64388;BME280;50709;52.648;4.764;2023-04-27T01:07:49;102192.34;;;10.17;63.24
64388;BME280;50709;52.648;4.764;2023-04-27T01:10:15;102204.72;;;10.25;63.50
64388;BME280;50709;52.648;4.764;2023-04-27T01:12:40;102205.88;;;10.02;62.50
64388;BME280;50709;52.648;4.764;2023-04-27T01:15:06;102205.63;;;9.92;63.39
64388;BME280;50709;52.648;4.764;2023-04-27T01:17:32;102209.72;;;10.16;63.54
64388;BME280;50709;52.648;4.764;2023-04-27T01:19:57;102204.47;;;10.15;63.65
64388;BME280;50709;52.648;4.764;2023-04-27T01:22:24;102195.28;;;9.96;63.42
64388;BME280;50709;52.648;4.764;2023-04-27T01:24:50;102193.13;;;9.81;64.73
64388;BME280;50709;52.648;4.764;2023-04-27T01:27:15;102191.38;;;9.80;64.56
64388;BME280;50709;52.648;4.764;2023-04-27T01:29:41;102189.94;;;9.59;63.93
64388;BME280;50709;52.648;4.764;2023-04-27T01:32:08;102197.75;;;9.89;64.64
64388;BME280;50709;52.648;4.764;2023-04-27T01:34:33;102186.00;;;9.73;63.89
64388;BME280;50709;52.648;4.764;2023-04-27T01:36:58;102183.03;;;9.93;64.46
64388;BME280;50709;52.648;4.764;2023-04-27T01:39:24;102174.66;;;10.06;64.43
64388;BME280;50709;52.648;4.764;2023-04-27T01:41:49;102173.06;;;10.12;63.93
64388;BME280;50709;52.648;4.764;2023-04-27T01:44:15;102172.38;;;10.19;63.41
64388;BME280;50709;52.648;4.764;2023-04-27T01:46:43;102154.91;;;10.16;63.34
64388;BME280;50709;52.648;4.764;2023-04-27T01:49:08;102159.50;;;10.26;63.36
64388;BME280;50709;52.648;4.764;2023-04-27T01:51:33;102166.94;;;10.44;62.86
64388;BME280;50709;52.648;4.764;2023-04-27T01:53:59;102164.88;;;10.31;62.91
64388;BME280;50709;52.648;4.764;2023-04-27T01:56:25;102169.06;;;10.24;63.31
64388;BME280;50709;52.648;4.764;2023-04-27T01:58:53;102163.97;;;9.96;63.56
64388;BME280;50709;52.648;4.764;2023-04-27T02:01:19;102159.06;;;9.74;63.92
64388;BME280;50709;52.648;4.764;2023-04-27T02:03:45;102171.81;;;9.97;64.28
64388;BME280;50709;52.648;4.764;2023-04-27T02:06:10;102167.53;;;9.99;63.87
64388;BME280;50709;52.648;4.764;2023-04-27T02:08:36;102167.91;;;10.15;64.15
64388;BME280;50709;52.648;4.764;2023-04-27T02:11:01;102169.13;;;10.27;63.48
64388;BME280;50709;52.648;4.764;2023-04-27T02:13:27;102168.81;;;9.82;63.49
64388;BME280;50709;52.648;4.764;2023-04-27T02:15:52;102164.50;;;9.50;63.92
64388;BME280;50709;52.648;4.764;2023-04-27T02:18:18;102150.56;;;9.50;64.45
64388;BME280;50709;52.648;4.764;2023-04-27T02:20:44;102175.16;;;9.91;64.00
64388;BME280;50709;52.648;4.764;2023-04-27T02:23:09;102171.97;;;10.02;63.49
64388;BME280;50709;52.648;4.764;2023-04-27T02:25:36;102162.81;;;9.84;63.30
64388;BME280;50709;52.648;4.764;2023-04-27T02:28:02;102169.22;;;9.97;64.00
64388;BME280;50709;52.648;4.764;2023-04-27T02:30:28;102164.91;;;9.98;63.61
64388;BME280;50709;52.648;4.764;2023-04-27T02:32:54;102167.13;;;9.84;63.96
64388;BME280;50709;52.648;4.764;2023-04-27T02:35:20;102154.28;;;9.91;63.49
64388;BME280;50709;52.648;4.764;2023-04-27T02:37:45;102141.84;;;9.81;63.87
64388;BME280;50709;52.648;4.764;2023-04-27T02:40:11;102170.97;;;9.98;63.73
64388;BME280;50709;52.648;4.764;2023-04-27T02:42:36;102141.97;;;9.86;63.12
64388;BME280;50709;52.648;4.764;2023-04-27T02:45:06;102156.00;;;9.89;63.25
64388;BME280;50709;52.648;4.764;2023-04-27T02:47:32;102164.50;;;9.84;63.77
64388;BME280;50709;52.648;4.764;2023-04-27T02:49:59;102173.63;;;9.66;63.30
64388;BME280;50709;52.648;4.764;2023-04-27T02:52:24;102154.13;;;9.52;64.22
64388;BME280;50709;52.648;4.764;2023-04-27T02:54:50;102161.09;;;9.53;64.86
64388;BME280;50709;52.648;4.764;2023-04-27T02:57:15;102169.84;;;9.55;65.32
64388;BME280;50709;52.648;4.764;2023-04-27T02:59:41;102168.59;;;9.74;64.92
64388;BME280;50709;52.648;4.764;2023-04-27T03:02:06;102157.38;;;9.45;64.90
64388;BME280;50709;52.648;4.764;2023-04-27T03:04:32;102151.22;;;9.41;65.17
64388;BME280;50709;52.648;4.764;2023-04-27T03:06:57;102164.69;;;9.58;65.22
64388;BME280;50709;52.648;4.764;2023-04-27T03:09:22;102180.38;;;9.59;64.94
64388;BME280;50709;52.648;4.764;2023-04-27T03:11:48;102172.66;;;9.63;64.30
64388;BME280;50709;52.648;4.764;2023-04-27T03:14:13;102171.16;;;9.71;65.01
64388;BME280;50709;52.648;4.764;2023-04-27T03:16:39;102176.78;;;9.54;64.56
64388;BME280;50709;52.648;4.764;2023-04-27T03:19:04;102171.06;;;9.36;65.49
64388;BME280;50709;52.648;4.764;2023-04-27T03:21:30;102164.78;;;9.29;65.74
64388;BME280;50709;52.648;4.764;2023-04-27T03:23:55;102161.53;;;9.38;65.93
64388;BME280;50709;52.648;4.764;2023-04-27T03:26:21;102117.19;;;9.06;65.24
64388;BME280;50709;52.648;4.764;2023-04-27T03:28:46;102164.28;;;9.42;65.12
64388;BME280;50709;52.648;4.764;2023-04-27T03:31:13;102162.34;;;9.35;65.92
64388;BME280;50709;52.648;4.764;2023-04-27T03:33:39;102147.09;;;9.19;64.89
64388;BME280;50709;52.648;4.764;2023-04-27T03:36:05;102159.78;;;9.37;64.92
64388;BME280;50709;52.648;4.764;2023-04-27T03:38:31;102151.09;;;9.38;65.42
64388;BME280;50709;52.648;4.764;2023-04-27T03:40:57;102168.25;;;9.60;64.64
64388;BME280;50709;52.648;4.764;2023-04-27T03:43:23;102155.78;;;9.50;64.79
64388;BME280;50709;52.648;4.764;2023-04-27T03:45:49;102160.78;;;9.42;64.62
64388;BME280;50709;52.648;4.764;2023-04-27T03:48:14;102177.41;;;9.46;65.07
64388;BME280;50709;52.648;4.764;2023-04-27T03:50:41;102146.63;;;9.34;64.97
64388;BME280;50709;52.648;4.764;2023-04-27T03:53:06;102166.91;;;9.42;65.26
64388;BME280;50709;52.648;4.764;2023-04-27T03:55:32;102154.88;;;9.17;65.12
64388;BME280;50709;52.648;4.764;2023-04-27T03:57:58;102125.34;;;8.88;65.26
64388;BME280;50709;52.648;4.764;2023-04-27T04:00:23;102112.16;;;8.82;65.27
64388;BME280;50709;52.648;4.764;2023-04-27T04:02:49;102178.47;;;9.22;65.40
64388;BME280;50709;52.648;4.764;2023-04-27T04:05:16;102174.69;;;9.41;65.28
64388;BME280;50709;52.648;4.764;2023-04-27T04:07:42;102137.47;;;9.16;65.06
64388;BME280;50709;52.648;4.764;2023-04-27T04:10:08;102123.97;;;8.99;65.20
64388;BME280;50709;52.648;4.764;2023-04-27T04:12:33;102177.81;;;9.29;64.80
64388;BME280;50709;52.648;4.764;2023-04-27T04:14:59;102163.94;;;9.30;65.97
64388;BME280;50709;52.648;4.764;2023-04-27T04:17:24;102180.34;;;9.26;65.05
64388;BME280;50709;52.648;4.764;2023-04-27T04:19:50;102174.41;;;9.32;64.82
64388;BME280;50709;52.648;4.764;2023-04-27T04:22:15;102183.44;;;9.45;65.69
64388;BME280;50709;52.648;4.764;2023-04-27T04:24:41;102190.81;;;9.59;65.79
64388;BME280;50709;52.648;4.764;2023-04-27T04:27:06;102177.88;;;9.32;65.18
64388;BME280;50709;52.648;4.764;2023-04-27T04:29:32;102197.13;;;9.36;65.21
64388;BME280;50709;52.648;4.764;2023-04-27T04:31:58;102187.13;;;9.21;65.57
64388;BME280;50709;52.648;4.764;2023-04-27T04:34:23;102184.91;;;9.04;65.04
64388;BME280;50709;52.648;4.764;2023-04-27T04:36:48;102197.19;;;9.08;66.15
64388;BME280;50709;52.648;4.764;2023-04-27T04:39:18;102189.66;;;9.18;65.44
64388;BME280;50709;52.648;4.764;2023-04-27T04:41:47;102196.34;;;9.09;65.01
64388;BME280;50709;52.648;4.764;2023-04-27T04:44:16;102206.44;;;9.28;64.38
64388;BME280;50709;52.648;4.764;2023-04-27T04:46:42;102206.44;;;9.28;65.30
64388;BME280;50709;52.648;4.764;2023-04-27T04:49:08;102196.72;;;9.22;65.52
64388;BME280;50709;52.648;4.764;2023-04-27T04:51:33;102195.81;;;9.50;64.78
64388;BME280;50709;52.648;4.764;2023-04-27T04:53:58;102199.47;;;9.57;64.56
64388;BME280;50709;52.648;4.764;2023-04-27T04:56:24;102203.69;;;9.53;65.07
64388;BME280;50709;52.648;4.764;2023-04-27T04:58:50;102195.84;;;9.52;65.36
64388;BME280;50709;52.648;4.764;2023-04-27T05:01:15;102129.09;;;8.96;65.33
64388;BME280;50709;52.648;4.764;2023-04-27T05:03:40;102197.28;;;9.42;64.46
64388;BME280;50709;52.648;4.764;2023-04-27T05:06:06;102190.19;;;9.36;64.08
64388;BME280;50709;52.648;4.764;2023-04-27T05:08:31;102184.97;;;9.36;64.77
64388;BME280;50709;52.648;4.764;2023-04-27T05:10:57;102178.59;;;9.57;65.06
64388;BME280;50709;52.648;4.764;2023-04-27T05:13:22;102176.34;;;9.39;64.37
64388;BME280;50709;52.648;4.764;2023-04-27T05:15:51;102185.06;;;9.71;64.60
64388;BME280;50709;52.648;4.764;2023-04-27T05:18:17;102195.72;;;9.49;65.72
64388;BME280;50709;52.648;4.764;2023-04-27T05:20:43;102164.63;;;9.55;63.53
64388;BME280;50709;52.648;4.764;2023-04-27T05:23:08;102204.81;;;9.93;64.88
64388;BME280;50709;52.648;4.764;2023-04-27T05:25:34;102182.41;;;10.02;62.28
64388;BME280;50709;52.648;4.764;2023-04-27T05:28:09;102204.66;;;9.89;60.80
64388;BME280;50709;52.648;4.764;2023-04-27T05:30:35;102204.47;;;10.15;61.17
64388;BME280;50709;52.648;4.764;2023-04-27T05:33:01;102203.63;;;10.16;61.12
64388;BME280;50709;52.648;4.764;2023-04-27T05:35:28;102195.16;;;10.59;61.17
64388;BME280;50709;52.648;4.764;2023-04-27T05:37:53;102200.69;;;10.03;60.88
64388;BME280;50709;52.648;4.764;2023-04-27T05:40:19;102197.94;;;9.99;59.67
64388;BME280;50709;52.648;4.764;2023-04-27T05:42:45;102210.59;;;10.49;60.06
64388;BME280;50709;52.648;4.764;2023-04-27T05:45:11;102202.84;;;10.91;58.13
64388;BME280;50709;52.648;4.764;2023-04-27T05:47:36;102208.13;;;10.56;60.08
64388;BME280;50709;52.648;4.764;2023-04-27T05:50:02;102200.34;;;10.58;58.98
64388;BME280;50709;52.648;4.764;2023-04-27T05:52:28;102200.47;;;11.02;58.00
64388;BME280;50709;52.648;4.764;2023-04-27T05:54:55;102188.81;;;11.70;55.97
64388;BME280;50709;52.648;4.764;2023-04-27T05:57:22;102190.47;;;11.24;57.54
64388;BME280;50709;52.648;4.764;2023-04-27T05:59:48;102183.13;;;10.66;57.98
64388;BME280;50709;52.648;4.764;2023-04-27T06:02:13;102196.84;;;11.35;55.50
64388;BME280;50709;52.648;4.764;2023-04-27T06:04:38;102170.44;;;10.45;54.48
64388;BME280;50709;52.648;4.764;2023-04-27T06:07:08;102203.69;;;11.30;54.59
64388;BME280;50709;52.648;4.764;2023-04-27T06:09:34;102204.59;;;11.32;53.92
64388;BME280;50709;52.648;4.764;2023-04-27T06:11:59;102209.53;;;11.18;55.47
64388;BME280;50709;52.648;4.764;2023-04-27T06:14:27;102207.38;;;10.99;55.23
64388;BME280;50709;52.648;4.764;2023-04-27T06:16:52;102215.72;;;10.82;52.71
64388;BME280;50709;52.648;4.764;2023-04-27T06:19:18;102214.84;;;10.45;56.70
64388;BME280;50709;52.648;4.764;2023-04-27T06:21:43;102164.25;;;10.80;56.47
64388;BME280;50709;52.648;4.764;2023-04-27T06:24:09;102201.41;;;11.47;54.57
64388;BME280;50709;52.648;4.764;2023-04-27T06:26:34;102209.53;;;11.59;55.01
64388;BME280;50709;52.648;4.764;2023-04-27T06:29:00;102213.16;;;11.66;55.37
64388;BME280;50709;52.648;4.764;2023-04-27T06:31:27;102219.50;;;11.79;54.23
64388;BME280;50709;52.648;4.764;2023-04-27T06:33:53;102189.88;;;12.31;54.57
64388;BME280;50709;52.648;4.764;2023-04-27T06:36:18;102210.75;;;11.78;54.11
64388;BME280;50709;52.648;4.764;2023-04-27T06:38:44;102213.16;;;12.12;52.75
64388;BME280;50709;52.648;4.764;2023-04-27T06:41:10;102181.25;;;12.94;51.28
64388;BME280;50709;52.648;4.764;2023-04-27T06:43:35;102197.91;;;11.91;51.82
64388;BME280;50709;52.648;4.764;2023-04-27T06:46:01;102207.00;;;11.66;56.45
64388;BME280;50709;52.648;4.764;2023-04-27T06:48:27;102200.81;;;12.58;54.24
64388;BME280;50709;52.648;4.764;2023-04-27T06:50:52;102192.16;;;12.10;53.20
64388;BME280;50709;52.648;4.764;2023-04-27T06:53:17;102192.56;;;11.86;53.62
64388;BME280;50709;52.648;4.764;2023-04-27T06:55:43;102185.91;;;12.02;54.21
64388;BME280;50709;52.648;4.764;2023-04-27T06:58:08;102204.22;;;12.53;53.28
64388;BME280;50709;52.648;4.764;2023-04-27T07:00:34;102201.31;;;12.94;52.36
64388;BME280;50709;52.648;4.764;2023-04-27T07:02:59;102200.69;;;11.97;52.45
64388;BME280;50709;52.648;4.764;2023-04-27T07:05:25;102208.16;;;12.83;53.20
64388;BME280;50709;52.648;4.764;2023-04-27T07:07:51;102195.63;;;12.08;53.01
64388;BME280;50709;52.648;4.764;2023-04-27T07:10:16;102180.94;;;13.37;52.35
64388;BME280;50709;52.648;4.764;2023-04-27T07:12:42;102208.72;;;12.61;51.54
64388;BME280;50709;52.648;4.764;2023-04-27T07:15:08;102223.72;;;12.72;51.66
64388;BME280;50709;52.648;4.764;2023-04-27T07:17:34;102222.59;;;13.16;52.43
64388;BME280;50709;52.648;4.764;2023-04-27T07:20:03;102167.84;;;12.73;51.98
64388;BME280;50709;52.648;4.764;2023-04-27T07:22:30;102218.94;;;13.03;52.22
64388;BME280;50709;52.648;4.764;2023-04-27T07:25:15;102212.06;;;12.51;49.46
64388;BME280;50709;52.648;4.764;2023-04-27T07:27:41;102224.09;;;12.41;52.50
64388;BME280;50709;52.648;4.764;2023-04-27T07:30:07;102222.63;;;13.88;51.08
64388;BME280;50709;52.648;4.764;2023-04-27T07:32:34;102185.03;;;13.90;50.97
64388;BME280;50709;52.648;4.764;2023-04-27T07:34:59;102219.66;;;13.57;52.12
64388;BME280;50709;52.648;4.764;2023-04-27T07:37:25;102220.63;;;13.63;51.64
64388;BME280;50709;52.648;4.764;2023-04-27T07:39:51;102221.91;;;13.29;51.89
64388;BME280;50709;52.648;4.764;2023-04-27T07:42:17;102217.53;;;14.03;51.08
64388;BME280;50709;52.648;4.764;2023-04-27T07:44:43;102199.19;;;14.09;49.70
64388;BME280;50709;52.648;4.764;2023-04-27T07:47:08;102206.03;;;13.92;50.32
64388;BME280;50709;52.648;4.764;2023-04-27T07:49:35;102213.97;;;13.23;50.54
64388;BME280;50709;52.648;4.764;2023-04-27T07:52:01;102195.91;;;13.46;49.81
64388;BME280;50709;52.648;4.764;2023-04-27T07:54:28;102179.59;;;13.76;52.26
64388;BME280;50709;52.648;4.764;2023-04-27T07:56:54;102215.34;;;14.53;48.93
64388;BME280;50709;52.648;4.764;2023-04-27T07:59:19;102206.53;;;14.51;48.99
64388;BME280;50709;52.648;4.764;2023-04-27T08:01:44;102206.59;;;14.57;48.67
64388;BME280;50709;52.648;4.764;2023-04-27T08:04:10;102199.38;;;14.31;47.98
64388;BME280;50709;52.648;4.764;2023-04-27T08:06:37;102205.38;;;12.70;47.28
64388;BME280;50709;52.648;4.764;2023-04-27T08:09:02;102205.22;;;13.98;48.43
64388;BME280;50709;52.648;4.764;2023-04-27T08:11:28;102199.88;;;13.91;50.12
64388;BME280;50709;52.648;4.764;2023-04-27T08:13:54;102211.47;;;13.34;46.39
64388;BME280;50709;52.648;4.764;2023-04-27T08:16:20;102205.50;;;14.27;51.52
64388;BME280;50709;52.648;4.764;2023-04-27T08:18:45;102193.94;;;14.09;51.67
64388;BME280;50709;52.648;4.764;2023-04-27T08:21:11;102200.03;;;14.05;49.06
64388;BME280;50709;52.648;4.764;2023-04-27T08:23:36;102193.53;;;14.65;52.23
64388;BME280;50709;52.648;4.764;2023-04-27T08:26:03;102208.69;;;15.07;49.29
64388;BME280;50709;52.648;4.764;2023-04-27T08:28:28;102182.53;;;15.51;48.20
64388;BME280;50709;52.648;4.764;2023-04-27T08:30:54;102194.84;;;15.47;45.36
64388;BME280;50709;52.648;4.764;2023-04-27T08:33:20;102182.41;;;15.13;45.14
64388;BME280;50709;52.648;4.764;2023-04-27T08:35:45;102186.03;;;15.40;46.99
64388;BME280;50709;52.648;4.764;2023-04-27T08:38:10;102209.41;;;14.77;46.10
64388;BME280;50709;52.648;4.764;2023-04-27T08:40:41;102196.53;;;15.34;47.40
64388;BME280;50709;52.648;4.764;2023-04-27T08:43:07;102197.53;;;15.73;46.37
64388;BME280;50709;52.648;4.764;2023-04-27T08:45:33;102187.50;;;14.79;41.02
64388;BME280;50709;52.648;4.764;2023-04-27T08:47:59;102204.38;;;14.00;48.54
64388;BME280;50709;52.648;4.764;2023-04-27T08:50:25;102191.31;;;15.43;46.37
64388;BME280;50709;52.648;4.764;2023-04-27T08:52:51;102195.84;;;15.83;44.87
64388;BME280;50709;52.648;4.764;2023-04-27T08:55:17;102201.63;;;14.97;43.99
64388;BME280;50709;52.648;4.764;2023-04-27T08:57:56;102202.84;;;15.84;44.92
64388;BME280;50709;52.648;4.764;2023-04-27T09:00:25;102195.00;;;16.52;45.05
64388;BME280;50709;52.648;4.764;2023-04-27T09:02:51;102194.94;;;16.89;45.17
64388;BME280;50709;52.648;4.764;2023-04-27T09:05:18;102135.00;;;15.04;44.03
64388;BME280;50709;52.648;4.764;2023-04-27T09:08:00;102193.38;;;14.44;44.13
64388;BME280;50709;52.648;4.764;2023-04-27T09:10:30;102170.16;;;15.22;45.35
64388;BME280;50709;52.648;4.764;2023-04-27T09:13:07;102193.38;;;14.46;43.92
64388;BME280;50709;52.648;4.764;2023-04-27T09:15:40;102187.56;;;14.90;44.16
64388;BME280;50709;52.648;4.764;2023-04-27T09:18:06;102187.44;;;14.70;41.48
64388;BME280;50709;52.648;4.764;2023-04-27T09:20:31;102182.50;;;15.34;43.50
64388;BME280;50709;52.648;4.764;2023-04-27T09:22:56;102184.63;;;14.49;38.89
64388;BME280;50709;52.648;4.764;2023-04-27T09:25:26;102180.75;;;14.05;38.58
64388;BME280;50709;52.648;4.764;2023-04-27T09:27:52;102185.47;;;14.44;41.91
64388;BME280;50709;52.648;4.764;2023-04-27T09:30:18;102155.09;;;14.80;43.66
64388;BME280;50709;52.648;4.764;2023-04-27T09:32:54;102184.31;;;15.50;42.35
64388;BME280;50709;52.648;4.764;2023-04-27T09:35:26;102177.03;;;14.89;42.09
64388;BME280;50709;52.648;4.764;2023-04-27T09:37:52;102177.06;;;14.98;40.82
64388;BME280;50709;52.648;4.764;2023-04-27T09:40:23;102164.09;;;15.43;43.49
64388;BME280;50709;52.648;4.764;2023-04-27T09:42:57;102164.19;;;15.78;42.18
64388;BME280;50709;52.648;4.764;2023-04-27T09:45:25;102158.88;;;15.52;40.35
64388;BME280;50709;52.648;4.764;2023-04-27T09:47:51;102170.28;;;15.48;39.82
64388;BME280;50709;52.648;4.764;2023-04-27T09:50:16;102177.00;;;14.83;40.81
64388;BME280;50709;52.648;4.764;2023-04-27T09:52:45;102172.59;;;14.75;38.36
64388;BME280;50709;52.648;4.764;2023-04-27T09:55:16;102139.31;;;14.88;39.86
64388;BME280;50709;52.648;4.764;2023-04-27T10:00:37;102174.28;;;14.70;37.65
64388;BME280;50709;52.648;4.764;2023-04-27T10:08:45;102170.22;;;15.28;42.62
64388;BME280;50709;52.648;4.764;2023-04-27T10:11:15;102179.16;;;15.90;42.40
64388;BME280;50709;52.648;4.764;2023-04-27T10:13:50;102157.22;;;16.02;41.03
64388;BME280;50709;52.648;4.764;2023-04-27T10:16:17;102180.00;;;16.76;44.18
64388;BME280;50709;52.648;4.764;2023-04-27T10:18:50;102185.22;;;15.63;36.25
64388;BME280;50709;52.648;4.764;2023-04-27T10:21:16;102161.22;;;14.81;37.06
64388;BME280;50709;52.648;4.764;2023-04-27T10:23:49;102188.75;;;15.76;40.60
64388;BME280;50709;52.648;4.764;2023-04-27T10:26:21;102187.94;;;16.03;40.92
64388;BME280;50709;52.648;4.764;2023-04-27T10:29:04;102188.75;;;15.73;39.23
64388;BME280;50709;52.648;4.764;2023-04-27T10:31:32;102194.03;;;15.76;36.02
64388;BME280;50709;52.648;4.764;2023-04-27T10:34:08;102181.66;;;15.50;39.81
64388;BME280;50709;52.648;4.764;2023-04-27T10:36:35;102192.34;;;16.18;39.47
64388;BME280;50709;52.648;4.764;2023-04-27T10:39:02;102178.88;;;15.07;41.42
64388;BME280;50709;52.648;4.764;2023-04-27T10:41:34;102165.00;;;15.50;39.01
64388;BME280;50709;52.648;4.764;2023-04-27T10:44:15;102173.84;;;15.69;39.81
64388;BME280;50709;52.648;4.764;2023-04-27T10:46:53;102182.47;;;15.21;35.83
64388;BME280;50709;52.648;4.764;2023-04-27T10:49:20;102177.41;;;16.53;40.55
64388;BME280;50709;52.648;4.764;2023-04-27T10:51:47;102178.31;;;16.22;37.03
64388;BME280;50709;52.648;4.764;2023-04-27T10:54:13;102168.47;;;15.36;38.40
64388;BME280;50709;52.648;4.764;2023-04-27T10:56:39;102150.97;;;15.54;41.26
64388;BME280;50709;52.648;4.764;2023-04-27T10:59:05;102162.44;;;16.61;41.08
64388;BME280;50709;52.648;4.764;2023-04-27T11:01:31;102150.13;;;16.68;37.22
64388;BME280;50709;52.648;4.764;2023-04-27T11:03:58;102135.16;;;15.44;35.42
64388;BME280;50709;52.648;4.764;2023-04-27T11:06:24;102165.09;;;15.90;37.23
64388;BME280;50709;52.648;4.764;2023-04-27T11:08:49;102149.13;;;17.06;37.85
64388;BME280;50709;52.648;4.764;2023-04-27T11:11:15;102151.72;;;17.21;40.38
64388;BME280;50709;52.648;4.764;2023-04-27T11:13:43;102144.88;;;16.63;37.01
64388;BME280;50709;52.648;4.764;2023-04-27T11:16:09;102125.44;;;15.23;34.80
64388;BME280;50709;52.648;4.764;2023-04-27T11:18:37;102152.59;;;17.22;38.56
64388;BME280;50709;52.648;4.764;2023-04-27T11:21:13;102122.91;;;16.58;38.57
64388;BME280;50709;52.648;4.764;2023-04-27T11:23:39;102129.25;;;17.98;41.99
64388;BME280;50709;52.648;4.764;2023-04-27T11:26:16;102147.63;;;19.66;38.23
64388;BME280;50709;52.648;4.764;2023-04-27T11:28:57;102128.50;;;17.76;33.69
64388;BME280;50709;52.648;4.764;2023-04-27T11:31:24;102127.22;;;16.77;35.80
64388;BME280;50709;52.648;4.764;2023-04-27T11:33:50;102145.41;;;17.48;36.72
64388;BME280;50709;52.648;4.764;2023-04-27T11:36:22;102123.69;;;16.91;35.69
64388;BME280;50709;52.648;4.764;2023-04-27T11:38:47;102141.38;;;16.30;36.71
64388;BME280;50709;52.648;4.764;2023-04-27T11:41:13;102130.72;;;16.93;37.77
64388;BME280;50709;52.648;4.764;2023-04-27T11:43:40;102113.16;;;16.85;36.25
64388;BME280;50709;52.648;4.764;2023-04-27T11:46:08;102133.47;;;16.55;36.34
64388;BME280;50709;52.648;4.764;2023-04-27T11:48:37;102134.34;;;15.86;33.76
64388;BME280;50709;52.648;4.764;2023-04-27T11:51:03;102122.97;;;15.96;37.06
64388;BME280;50709;52.648;4.764;2023-04-27T11:53:34;102130.38;;;17.61;40.59
64388;BME280;50709;52.648;4.764;2023-04-27T11:56:02;102128.25;;;19.61;42.48
64388;BME280;50709;52.648;4.764;2023-04-27T11:58:34;102095.28;;;18.48;36.58
64388;BME280;50709;52.648;4.764;2023-04-27T12:01:01;102124.00;;;17.96;38.18
64388;BME280;50709;52.648;4.764;2023-04-27T12:03:28;102117.16;;;18.64;39.44
64388;BME280;50709;52.648;4.764;2023-04-27T12:05:55;102115.78;;;19.05;40.78
64388;BME280;50709;52.648;4.764;2023-04-27T12:08:21;102117.34;;;19.82;35.60
64388;BME280;50709;52.648;4.764;2023-04-27T12:10:47;102114.97;;;19.00;35.13
64388;BME280;50709;52.648;4.764;2023-04-27T12:13:13;102119.53;;;18.89;38.05
64388;BME280;50709;52.648;4.764;2023-04-27T12:15:39;102078.69;;;17.20;33.24
64388;BME280;50709;52.648;4.764;2023-04-27T12:18:06;102106.97;;;16.92;35.35
64388;BME280;50709;52.648;4.764;2023-04-27T12:20:32;102096.09;;;18.52;37.78
64388;BME280;50709;52.648;4.764;2023-04-27T12:22:58;102098.03;;;18.37;36.65
64388;BME280;50709;52.648;4.764;2023-04-27T12:25:23;102111.44;;;16.65;33.10
64388;BME280;50709;52.648;4.764;2023-04-27T12:27:49;102099.06;;;16.93;38.40
64388;BME280;50709;52.648;4.764;2023-04-27T12:30:15;102084.97;;;16.88;36.92
64388;BME280;50709;52.648;4.764;2023-04-27T12:32:41;102102.88;;;17.87;38.43
64388;BME280;50709;52.648;4.764;2023-04-27T12:35:07;102099.13;;;16.69;33.11
64388;BME280;50709;52.648;4.764;2023-04-27T12:37:33;102101.44;;;17.41;39.28
64388;BME280;50709;52.648;4.764;2023-04-27T12:39:59;102087.47;;;18.37;39.14
64388;BME280;50709;52.648;4.764;2023-04-27T12:42:24;102101.44;;;18.48;37.63
64388;BME280;50709;52.648;4.764;2023-04-27T12:44:51;102105.56;;;19.43;36.59
64388;BME280;50709;52.648;4.764;2023-04-27T12:47:17;102106.88;;;17.13;32.32
64388;BME280;50709;52.648;4.764;2023-04-27T12:49:43;102106.06;;;16.88;34.74
64388;BME280;50709;52.648;4.764;2023-04-27T12:52:09;102092.19;;;16.34;32.95
64388;BME280;50709;52.648;4.764;2023-04-27T12:54:34;102082.38;;;16.90;36.69
64388;BME280;50709;52.648;4.764;2023-04-27T12:57:01;102093.94;;;16.33;33.69
64388;BME280;50709;52.648;4.764;2023-04-27T12:59:30;102086.53;;;17.37;41.17